sensor_id;sensor_type;location;lat;lon;timestamp;pressure;altitude;pressure_sealevel;temperature;humidity
42169;BME280;27838;43.858;25.974;2023-07-13T00:01:38;100909.66;;;31.33;42.42
42169;BME280;27838;43.858;25.974;2023-07-13T00:04:04;100903.81;;;31.28;43.00
42169;BME280;27838;43.858;25.974;2023-07-13T00:06:31;100915.81;;;31.24;43.10
42169;BME280;27838;43.858;25.974;2023-07-13T00:08:59;100920.59;;;31.20;43.21
42169;BME280;27838;43.858;25.974;2023-07-13T00:11:25;100923.41;;;31.19;43.28
42169;BME280;27838;43.858;25.974;2023-07-13T00:13:52;100914.88;;;31.14;43.64
42169;BME280;27838;43.858;25.974;2023-07-13T00:16:19;100904.16;;;31.02;43.70
42169;BME280;27838;43.858;25.974;2023-07-13T00:18:46;100907.34;;;30.96;43.98
42169;BME280;27838;43.858;25.974;2023-07-13T00:21:13;100885.84;;;30.85;44.22
42169;BME280;27838;43.858;25.974;2023-07-13T00:23:41;100904.44;;;30.88;44.05
42169;BME280;27838;43.858;25.974;2023-07-13T00:26:09;100892.72;;;30.78;44.29
42169;BME280;27838;43.858;25.974;2023-07-13T00:28:37;100890.63;;;30.81;44.38
42169;BME280;27838;43.858;25.974;2023-07-13T00:31:04;100880.84;;;30.80;44.26
42169;BME280;27838;43.858;25.974;2023-07-13T00:33:31;100881.72;;;30.81;44.52
42169;BME280;27838;43.858;25.974;2023-07-13T00:35:58;100872.88;;;30.79;44.50
42169;BME280;27838;43.858;25.974;2023-07-13T00:38:24;100877.19;;;30.81;44.38
42169;BME280;27838;43.858;25.974;2023-07-13T00:40:51;100880.97;;;30.79;44.85
42169;BME280;27838;43.858;25.974;2023-07-13T00:43:20;100868.88;;;30.73;44.70
42169;BME280;27838;43.858;25.974;2023-07-13T00:48:18;100881.84;;;30.68;45.21
42169;BME280;27838;43.858;25.974;2023-07-13T00:50:48;100877.84;;;30.62;45.11
42169;BME280;27838;43.858;25.974;2023-07-13T00:53:18;100876.53;;;30.57;45.73
42169;BME280;27838;43.858;25.974;2023-07-13T00:55:47;100876.66;;;30.55;45.80
42169;BME280;27838;43.858;25.974;2023-07-13T00:58:14;100874.94;;;30.54;45.87
42169;BME280;27838;43.858;25.974;2023-07-13T01:00:42;100865.06;;;30.43;45.72
42169;BME280;27838;43.858;25.974;2023-07-13T01:03:09;100874.56;;;30.47;45.88
42169;BME280;27838;43.858;25.974;2023-07-13T01:05:35;100867.38;;;30.48;46.02
42169;BME280;27838;43.858;25.974;2023-07-13T01:08:03;100876.16;;;30.50;46.14
42169;BME280;27838;43.858;25.974;2023-07-13T01:10:30;100881.31;;;30.53;46.12
42169;BME280;27838;43.858;25.974;2023-07-13T01:13:08;100872.34;;;30.53;46.18
42169;BME280;27838;43.858;25.974;2023-07-13T01:15:47;100876.88;;;30.52;46.08
42169;BME280;27838;43.858;25.974;2023-07-13T01:18:20;100878.13;;;30.48;46.18
42169;BME280;27838;43.858;25.974;2023-07-13T01:20:59;100880.09;;;30.46;46.50
42169;BME280;27838;43.858;25.974;2023-07-13T01:23:27;100882.03;;;30.44;46.64
42169;BME280;27838;43.858;25.974;2023-07-13T01:25:54;100884.41;;;30.37;46.82
42169;BME280;27838;43.858;25.974;2023-07-13T01:28:22;100887.41;;;30.33;48.50
42169;BME280;27838;43.858;25.974;2023-07-13T01:30:53;100888.16;;;30.23;49.09
42169;BME280;27838;43.858;25.974;2023-07-13T01:33:20;100888.03;;;30.13;49.62
42169;BME280;27838;43.858;25.974;2023-07-13T01:35:47;100887.31;;;30.11;50.13
42169;BME280;27838;43.858;25.974;2023-07-13T01:38:15;100884.75;;;29.99;51.12
42169;BME280;27838;43.858;25.974;2023-07-13T01:40:42;100898.66;;;30.04;51.47
42169;BME280;27838;43.858;25.974;2023-07-13T01:43:09;100890.38;;;29.96;51.94
42169;BME280;27838;43.858;25.974;2023-07-13T01:45:35;100891.34;;;29.94;52.87
42169;BME280;27838;43.858;25.974;2023-07-13T01:48:02;100895.13;;;29.92;53.11
42169;BME280;27838;43.858;25.974;2023-07-13T01:50:29;100883.66;;;29.90;53.33
42169;BME280;27838;43.858;25.974;2023-07-13T01:52:55;100883.50;;;29.91;53.22
42169;BME280;27838;43.858;25.974;2023-07-13T01:55:22;100883.28;;;29.94;53.07
42169;BME280;27838;43.858;25.974;2023-07-13T01:57:49;100885.97;;;29.94;52.76
42169;BME280;27838;43.858;25.974;2023-07-13T02:00:16;100882.78;;;29.89;53.07
42169;BME280;27838;43.858;25.974;2023-07-13T02:02:42;100887.41;;;29.87;53.26
42169;BME280;27838;43.858;25.974;2023-07-13T02:05:09;100890.84;;;29.89;52.99
42169;BME280;27838;43.858;25.974;2023-07-13T02:07:37;100892.91;;;29.86;53.26
42169;BME280;27838;43.858;25.974;2023-07-13T02:10:05;100884.47;;;29.79;53.01
42169;BME280;27838;43.858;25.974;2023-07-13T02:12:31;100883.00;;;29.75;52.94
42169;BME280;27838;43.858;25.974;2023-07-13T02:14:58;100888.34;;;29.75;52.83
42169;BME280;27838;43.858;25.974;2023-07-13T02:17:26;100886.03;;;29.70;53.29
42169;BME280;27838;43.858;25.974;2023-07-13T02:19:53;100890.44;;;29.71;53.12
42169;BME280;27838;43.858;25.974;2023-07-13T02:22:20;100897.16;;;29.66;53.33
42169;BME280;27838;43.858;25.974;2023-07-13T02:24:46;100893.84;;;29.62;53.41
42169;BME280;27838;43.858;25.974;2023-07-13T02:27:13;100897.16;;;29.66;53.55
42169;BME280;27838;43.858;25.974;2023-07-13T02:29:39;100894.34;;;29.67;53.18
42169;BME280;27838;43.858;25.974;2023-07-13T02:32:06;100894.47;;;29.66;53.09
42169;BME280;27838;43.858;25.974;2023-07-13T02:34:33;100901.41;;;29.68;53.04
42169;BME280;27838;43.858;25.974;2023-07-13T02:37:00;100891.03;;;29.64;53.12
42169;BME280;27838;43.858;25.974;2023-07-13T02:39:27;100890.53;;;29.70;53.28
42169;BME280;27838;43.858;25.974;2023-07-13T02:41:53;100892.72;;;29.65;53.24
42169;BME280;27838;43.858;25.974;2023-07-13T02:44:20;100895.53;;;29.63;53.29
42169;BME280;27838;43.858;25.974;2023-07-13T02:46:46;100893.47;;;29.55;53.57
42169;BME280;27838;43.858;25.974;2023-07-13T02:49:13;100885.53;;;29.54;53.50
42169;BME280;27838;43.858;25.974;2023-07-13T02:51:39;100886.13;;;29.58;53.20
42169;BME280;27838;43.858;25.974;2023-07-13T02:54:06;100875.63;;;29.54;53.05
42169;BME280;27838;43.858;25.974;2023-07-13T02:56:34;100883.56;;;29.56;53.14
42169;BME280;27838;43.858;25.974;2023-07-13T02:59:01;100889.31;;;29.63;52.83
42169;BME280;27838;43.858;25.974;2023-07-13T03:01:27;100889.19;;;29.64;52.71
42169;BME280;27838;43.858;25.974;2023-07-13T03:03:54;100880.41;;;29.62;52.15
42169;BME280;27838;43.858;25.974;2023-07-13T03:06:21;100887.59;;;29.62;52.59
42169;BME280;27838;43.858;25.974;2023-07-13T03:08:48;100887.25;;;29.55;52.40
42169;BME280;27838;43.858;25.974;2023-07-13T03:11:18;100888.09;;;29.55;52.65
42169;BME280;27838;43.858;25.974;2023-07-13T03:13:45;100887.84;;;29.59;52.58
42169;BME280;27838;43.858;25.974;2023-07-13T03:16:11;100882.22;;;29.62;52.31
42169;BME280;27838;43.858;25.974;2023-07-13T03:18:39;100886.63;;;29.63;52.36
42169;BME280;27838;43.858;25.974;2023-07-13T03:21:06;100876.34;;;29.56;52.21
42169;BME280;27838;43.858;25.974;2023-07-13T03:23:33;100870.75;;;29.48;51.94
42169;BME280;27838;43.858;25.974;2023-07-13T03:26:08;100868.19;;;29.47;52.11
42169;BME280;27838;43.858;25.974;2023-07-13T03:28:35;100885.97;;;29.48;51.89
42169;BME280;27838;43.858;25.974;2023-07-13T03:31:17;100886.25;;;29.45;51.91
42169;BME280;27838;43.858;25.974;2023-07-13T03:33:45;100873.38;;;29.37;52.29
42169;BME280;27838;43.858;25.974;2023-07-13T03:36:24;100876.94;;;29.37;52.26
42169;BME280;27838;43.858;25.974;2023-07-13T03:38:55;100881.56;;;29.35;51.94
42169;BME280;27838;43.858;25.974;2023-07-13T03:41:23;100878.25;;;29.32;51.85
42169;BME280;27838;43.858;25.974;2023-07-13T03:43:50;100880.59;;;29.36;51.86
42169;BME280;27838;43.858;25.974;2023-07-13T03:46:18;100878.88;;;29.35;52.00
42169;BME280;27838;43.858;25.974;2023-07-13T03:48:46;100884.38;;;29.34;52.10
42169;BME280;27838;43.858;25.974;2023-07-13T03:51:14;100880.94;;;29.32;51.92
42169;BME280;27838;43.858;25.974;2023-07-13T03:53:42;100871.19;;;29.31;52.41
42169;BME280;27838;43.858;25.974;2023-07-13T03:56:10;100881.72;;;29.34;52.54
42169;BME280;27838;43.858;25.974;2023-07-13T03:58:38;100882.66;;;29.33;52.49
42169;BME280;27838;43.858;25.974;2023-07-13T04:01:07;100888.03;;;29.44;52.73
42169;BME280;27838;43.858;25.974;2023-07-13T04:03:35;100888.56;;;29.49;53.04
42169;BME280;27838;43.858;25.974;2023-07-13T04:06:04;100894.31;;;29.56;52.96
42169;BME280;27838;43.858;25.974;2023-07-13T04:08:33;100890.91;;;29.65;53.07
42169;BME280;27838;43.858;25.974;2023-07-13T04:11:00;100883.88;;;29.75;52.96
42169;BME280;27838;43.858;25.974;2023-07-13T04:13:27;100886.09;;;29.82;51.59
42169;BME280;27838;43.858;25.974;2023-07-13T04:15:54;100890.59;;;29.92;49.73
42169;BME280;27838;43.858;25.974;2023-07-13T04:18:21;100888.53;;;29.96;49.09
42169;BME280;27838;43.858;25.974;2023-07-13T04:20:48;100894.03;;;30.06;48.98
42169;BME280;27838;43.858;25.974;2023-07-13T04:23:16;100896.22;;;30.12;48.82
42169;BME280;27838;43.858;25.974;2023-07-13T04:25:44;100897.69;;;30.16;48.46
42169;BME280;27838;43.858;25.974;2023-07-13T04:28:11;100901.72;;;30.22;48.09
42169;BME280;27838;43.858;25.974;2023-07-13T04:30:38;100902.69;;;30.21;47.53
42169;BME280;27838;43.858;25.974;2023-07-13T04:33:04;100907.72;;;30.25;47.69
42169;BME280;27838;43.858;25.974;2023-07-13T04:35:31;100908.31;;;30.29;47.75
42169;BME280;27838;43.858;25.974;2023-07-13T04:37:58;100912.25;;;30.25;47.67
42169;BME280;27838;43.858;25.974;2023-07-13T04:40:25;100907.47;;;30.28;47.73
42169;BME280;27838;43.858;25.974;2023-07-13T04:42:52;100909.69;;;30.35;47.70
42169;BME280;27838;43.858;25.974;2023-07-13T04:45:19;100921.16;;;30.37;47.50
42169;BME280;27838;43.858;25.974;2023-07-13T04:47:46;100924.56;;;30.39;47.65
42169;BME280;27838;43.858;25.974;2023-07-13T04:50:15;100928.69;;;30.31;47.33
42169;BME280;27838;43.858;25.974;2023-07-13T04:52:46;100932.16;;;30.34;47.66
42169;BME280;27838;43.858;25.974;2023-07-13T04:55:13;100929.34;;;30.35;47.73
42169;BME280;27838;43.858;25.974;2023-07-13T04:57:39;100932.91;;;30.36;47.78
42169;BME280;27838;43.858;25.974;2023-07-13T05:00:06;100928.69;;;30.31;47.98
42169;BME280;27838;43.858;25.974;2023-07-13T05:02:34;100916.88;;;30.34;47.84
42169;BME280;27838;43.858;25.974;2023-07-13T05:05:01;100920.19;;;30.38;47.74
42169;BME280;27838;43.858;25.974;2023-07-13T05:07:29;100922.53;;;30.42;47.92
42169;BME280;27838;43.858;25.974;2023-07-13T05:09:55;100914.78;;;30.49;47.74
42169;BME280;27838;43.858;25.974;2023-07-13T05:12:22;100914.53;;;30.52;47.67
42169;BME280;27838;43.858;25.974;2023-07-13T05:14:48;100917.97;;;30.54;47.61
42169;BME280;27838;43.858;25.974;2023-07-13T05:17:15;100922.84;;;30.49;47.67
42169;BME280;27838;43.858;25.974;2023-07-13T05:19:41;100927.03;;;30.53;47.69
42169;BME280;27838;43.858;25.974;2023-07-13T05:22:08;100931.78;;;30.49;47.80
42169;BME280;27838;43.858;25.974;2023-07-13T05:24:34;100928.72;;;30.54;47.56
42169;BME280;27838;43.858;25.974;2023-07-13T05:27:01;100929.06;;;30.61;47.83
42169;BME280;27838;43.858;25.974;2023-07-13T05:29:27;100931.66;;;30.62;47.54
42169;BME280;27838;43.858;25.974;2023-07-13T05:31:54;100933.09;;;30.66;47.02
42169;BME280;27838;43.858;25.974;2023-07-13T05:34:21;100932.59;;;30.73;47.18
42169;BME280;27838;43.858;25.974;2023-07-13T05:36:50;100935.16;;;30.74;47.35
42169;BME280;27838;43.858;25.974;2023-07-13T05:39:17;100934.66;;;30.80;47.24
42169;BME280;27838;43.858;25.974;2023-07-13T05:41:44;100923.41;;;30.86;47.00
42169;BME280;27838;43.858;25.974;2023-07-13T05:44:10;100931.31;;;30.99;46.85
42169;BME280;27838;43.858;25.974;2023-07-13T05:46:37;100933.53;;;31.05;46.83
42169;BME280;27838;43.858;25.974;2023-07-13T05:49:04;100936.16;;;31.17;46.79
42169;BME280;27838;43.858;25.974;2023-07-13T05:51:30;100940.16;;;31.22;46.50
42169;BME280;27838;43.858;25.974;2023-07-13T05:53:57;100940.50;;;31.29;46.03
42169;BME280;27838;43.858;25.974;2023-07-13T05:56:23;100941.44;;;31.39;46.43
42169;BME280;27838;43.858;25.974;2023-07-13T05:58:51;100943.63;;;31.46;46.08
42169;BME280;27838;43.858;25.974;2023-07-13T06:01:18;100946.16;;;31.58;46.40
42169;BME280;27838;43.858;25.974;2023-07-13T06:03:46;100940.84;;;31.68;46.00
42169;BME280;27838;43.858;25.974;2023-07-13T06:06:15;100943.44;;;31.79;45.41
42169;BME280;27838;43.858;25.974;2023-07-13T06:08:43;100948.56;;;31.83;44.70
42169;BME280;27838;43.858;25.974;2023-07-13T06:11:15;100942.38;;;31.92;44.77
42169;BME280;27838;43.858;25.974;2023-07-13T06:13:42;100955.16;;;31.99;44.82
42169;BME280;27838;43.858;25.974;2023-07-13T06:16:09;100955.03;;;32.01;44.04
42169;BME280;27838;43.858;25.974;2023-07-13T06:18:37;100955.13;;;32.11;43.86
42169;BME280;27838;43.858;25.974;2023-07-13T06:21:09;100958.03;;;32.19;43.86
42169;BME280;27838;43.858;25.974;2023-07-13T06:23:36;100959.31;;;32.25;43.53
42169;BME280;27838;43.858;25.974;2023-07-13T06:26:04;100949.69;;;32.32;43.43
42169;BME280;27838;43.858;25.974;2023-07-13T06:28:31;100947.31;;;32.39;42.81
42169;BME280;27838;43.858;25.974;2023-07-13T06:30:58;100962.78;;;32.46;42.43
42169;BME280;27838;43.858;25.974;2023-07-13T06:33:26;100958.56;;;32.53;41.66
42169;BME280;27838;43.858;25.974;2023-07-13T06:35:53;100960.97;;;32.56;42.06
42169;BME280;27838;43.858;25.974;2023-07-13T06:38:20;100951.19;;;32.55;41.83
42169;BME280;27838;43.858;25.974;2023-07-13T06:40:47;100959.47;;;32.64;41.89
42169;BME280;27838;43.858;25.974;2023-07-13T06:43:13;100952.66;;;32.69;41.74
42169;BME280;27838;43.858;25.974;2023-07-13T06:45:43;100951.97;;;32.77;41.95
42169;BME280;27838;43.858;25.974;2023-07-13T06:48:10;100957.81;;;32.82;42.07
42169;BME280;27838;43.858;25.974;2023-07-13T06:50:37;100951.56;;;32.82;42.50
42169;BME280;27838;43.858;25.974;2023-07-13T06:53:04;100945.47;;;32.89;42.32
42169;BME280;27838;43.858;25.974;2023-07-13T06:55:30;100946.16;;;32.91;43.00
42169;BME280;27838;43.858;25.974;2023-07-13T06:57:57;100948.31;;;32.98;42.84
42169;BME280;27838;43.858;25.974;2023-07-13T07:00:24;100947.03;;;33.02;43.39
42169;BME280;27838;43.858;25.974;2023-07-13T07:02:50;100945.34;;;33.10;43.13
42169;BME280;27838;43.858;25.974;2023-07-13T07:05:17;100946.19;;;33.11;42.97
42169;BME280;27838;43.858;25.974;2023-07-13T07:07:51;100948.38;;;33.17;42.81
42169;BME280;27838;43.858;25.974;2023-07-13T07:10:19;100953.19;;;33.23;42.61
42169;BME280;27838;43.858;25.974;2023-07-13T07:12:46;100946.53;;;33.27;42.32
42169;BME280;27838;43.858;25.974;2023-07-13T07:15:13;100941.53;;;33.33;41.99
42169;BME280;27838;43.858;25.974;2023-07-13T07:17:40;100949.06;;;33.39;42.00
42169;BME280;27838;43.858;25.974;2023-07-13T07:20:06;100950.31;;;33.44;42.07
42169;BME280;27838;43.858;25.974;2023-07-13T07:22:33;100940.25;;;33.46;41.74
42169;BME280;27838;43.858;25.974;2023-07-13T07:25:00;100935.69;;;33.47;42.21
42169;BME280;27838;43.858;25.974;2023-07-13T07:27:26;100950.03;;;33.57;41.81
42169;BME280;27838;43.858;25.974;2023-07-13T07:29:53;100937.09;;;33.61;41.86
42169;BME280;27838;43.858;25.974;2023-07-13T07:32:20;100937.41;;;33.67;41.33
42169;BME280;27838;43.858;25.974;2023-07-13T07:34:46;100930.28;;;33.76;41.37
42169;BME280;27838;43.858;25.974;2023-07-13T07:37:14;100931.38;;;33.83;41.35
42169;BME280;27838;43.858;25.974;2023-07-13T07:39:40;100922.13;;;33.86;41.01
42169;BME280;27838;43.858;25.974;2023-07-13T07:42:07;100927.66;;;33.94;41.05
42169;BME280;27838;43.858;25.974;2023-07-13T07:44:34;100932.63;;;33.99;40.71
42169;BME280;27838;43.858;25.974;2023-07-13T07:47:01;100928.06;;;33.99;40.77
42169;BME280;27838;43.858;25.974;2023-07-13T07:49:27;100927.59;;;34.04;40.16
42169;BME280;27838;43.858;25.974;2023-07-13T07:51:54;100935.69;;;34.14;39.84
42169;BME280;27838;43.858;25.974;2023-07-13T07:54:20;100929.84;;;34.18;39.98
42169;BME280;27838;43.858;25.974;2023-07-13T07:56:47;100922.00;;;34.25;40.15
42169;BME280;27838;43.858;25.974;2023-07-13T07:59:14;100924.94;;;34.32;39.52
42169;BME280;27838;43.858;25.974;2023-07-13T08:01:40;100937.72;;;34.39;40.05
42169;BME280;27838;43.858;25.974;2023-07-13T08:04:07;100931.69;;;34.46;40.15
42169;BME280;27838;43.858;25.974;2023-07-13T08:06:34;100933.81;;;34.52;40.20
42169;BME280;27838;43.858;25.974;2023-07-13T08:09:01;100931.22;;;34.60;40.40
42169;BME280;27838;43.858;25.974;2023-07-13T08:11:29;100940.44;;;34.67;40.86
42169;BME280;27838;43.858;25.974;2023-07-13T08:13:56;100930.72;;;34.74;40.74
42169;BME280;27838;43.858;25.974;2023-07-13T08:16:23;100940.63;;;34.84;40.36
42169;BME280;27838;43.858;25.974;2023-07-13T08:18:50;100941.31;;;34.86;40.19
42169;BME280;27838;43.858;25.974;2023-07-13T08:21:16;100942.56;;;34.91;40.45
42169;BME280;27838;43.858;25.974;2023-07-13T08:23:45;100937.31;;;34.90;40.39
42169;BME280;27838;43.858;25.974;2023-07-13T08:26:12;100940.41;;;34.95;40.53
42169;BME280;27838;43.858;25.974;2023-07-13T08:28:39;100939.31;;;35.06;39.77
42169;BME280;27838;43.858;25.974;2023-07-13T08:31:07;100936.47;;;35.07;39.61
42169;BME280;27838;43.858;25.974;2023-07-13T08:33:35;100937.84;;;35.11;39.86
42169;BME280;27838;43.858;25.974;2023-07-13T08:36:03;100937.22;;;35.17;39.48
42169;BME280;27838;43.858;25.974;2023-07-13T08:38:30;100935.78;;;35.23;38.91
42169;BME280;27838;43.858;25.974;2023-07-13T08:40:57;100928.34;;;35.25;39.09
42169;BME280;27838;43.858;25.974;2023-07-13T08:43:29;100931.59;;;35.29;38.23
42169;BME280;27838;43.858;25.974;2023-07-13T08:46:08;100926.06;;;35.39;38.54
42169;BME280;27838;43.858;25.974;2023-07-13T08:49:07;100924.28;;;35.47;39.06
42169;BME280;27838;43.858;25.974;2023-07-13T08:51:52;100927.75;;;35.58;39.01
42169;BME280;27838;43.858;25.974;2023-07-13T08:56:53;100914.25;;;35.66;38.09
42169;BME280;27838;43.858;25.974;2023-07-13T08:59:24;100915.09;;;35.66;38.40
42169;BME280;27838;43.858;25.974;2023-07-13T09:02:17;100917.59;;;35.78;37.97
42169;BME280;27838;43.858;25.974;2023-07-13T09:04:54;100908.25;;;35.80;37.90
42169;BME280;27838;43.858;25.974;2023-07-13T09:10:28;100908.22;;;35.98;36.87
42169;BME280;27838;43.858;25.974;2023-07-13T09:13:05;100900.59;;;36.10;36.64
42169;BME280;27838;43.858;25.974;2023-07-13T09:15:47;100900.81;;;36.17;36.43
42169;BME280;27838;43.858;25.974;2023-07-13T09:20:54;100900.41;;;36.29;35.93
42169;BME280;27838;43.858;25.974;2023-07-13T09:23:26;100893.78;;;36.32;36.22
42169;BME280;27838;43.858;25.974;2023-07-13T09:26:00;100899.09;;;36.42;36.15
42169;BME280;27838;43.858;25.974;2023-07-13T09:28:33;100898.72;;;36.45;35.17
42169;BME280;27838;43.858;25.974;2023-07-13T09:31:06;100896.72;;;36.55;35.07
42169;BME280;27838;43.858;25.974;2023-07-13T09:33:33;100905.06;;;36.62;34.34
42169;BME280;27838;43.858;25.974;2023-07-13T09:36:00;100908.00;;;36.69;34.75
42169;BME280;27838;43.858;25.974;2023-07-13T09:38:29;100910.91;;;36.75;33.31
42169;BME280;27838;43.858;25.974;2023-07-13T09:46:28;100906.31;;;36.92;35.32
42169;BME280;27838;43.858;25.974;2023-07-13T09:48:56;100906.34;;;37.00;34.34
42169;BME280;27838;43.858;25.974;2023-07-13T09:51:22;100900.91;;;37.09;34.45
42169;BME280;27838;43.858;25.974;2023-07-13T09:53:49;100909.94;;;37.17;34.04
42169;BME280;27838;43.858;25.974;2023-07-13T09:56:20;100899.91;;;37.18;34.18
42169;BME280;27838;43.858;25.974;2023-07-13T09:58:48;100900.59;;;37.28;33.63
42169;BME280;27838;43.858;25.974;2023-07-13T10:01:15;100896.84;;;37.37;33.13
42169;BME280;27838;43.858;25.974;2023-07-13T10:03:53;100890.72;;;37.44;32.98
42169;BME280;27838;43.858;25.974;2023-07-13T10:06:21;100883.41;;;37.52;33.36
42169;BME280;27838;43.858;25.974;2023-07-13T10:08:50;100886.97;;;37.53;32.67
42169;BME280;27838;43.858;25.974;2023-07-13T10:14:03;100886.09;;;37.69;32.67
42169;BME280;27838;43.858;25.974;2023-07-13T10:16:35;100875.38;;;37.75;32.48
42169;BME280;27838;43.858;25.974;2023-07-13T10:24:48;100882.94;;;38.05;31.37
42169;BME280;27838;43.858;25.974;2023-07-13T10:27:19;100874.44;;;38.08;31.29
42169;BME280;27838;43.858;25.974;2023-07-13T10:30:00;100876.41;;;38.22;31.57
42169;BME280;27838;43.858;25.974;2023-07-13T10:32:28;100887.44;;;38.29;31.38
42169;BME280;27838;43.858;25.974;2023-07-13T10:34:54;100889.94;;;38.39;31.32
42169;BME280;27838;43.858;25.974;2023-07-13T10:37:27;100884.28;;;38.48;30.27
42169;BME280;27838;43.858;25.974;2023-07-13T10:39:57;100875.03;;;38.58;30.01
42169;BME280;27838;43.858;25.974;2023-07-13T10:44:53;100872.31;;;38.58;30.55
42169;BME280;27838;43.858;25.974;2023-07-13T10:47:20;100865.88;;;38.59;29.76
42169;BME280;27838;43.858;25.974;2023-07-13T10:49:49;100854.53;;;38.70;29.70
42169;BME280;27838;43.858;25.974;2023-07-13T10:52:41;100841.53;;;38.80;29.61
42169;BME280;27838;43.858;25.974;2023-07-13T10:55:37;100831.22;;;38.90;29.76
42169;BME280;27838;43.858;25.974;2023-07-13T10:58:22;100831.34;;;38.97;29.38
42169;BME280;27838;43.858;25.974;2023-07-13T11:01:03;100829.41;;;39.06;29.57
42169;BME280;27838;43.858;25.974;2023-07-13T11:03:33;100828.19;;;39.08;28.59
42169;BME280;27838;43.858;25.974;2023-07-13T11:11:36;100823.22;;;39.12;28.74
42169;BME280;27838;43.858;25.974;2023-07-13T11:14:26;100816.56;;;39.15;27.79
42169;BME280;27838;43.858;25.974;2023-07-13T11:16:54;100816.16;;;39.18;27.20
42169;BME280;27838;43.858;25.974;2023-07-13T11:22:09;100823.56;;;39.09;26.77
42169;BME280;27838;43.858;25.974;2023-07-13T11:24:57;100818.88;;;39.03;27.36
42169;BME280;27838;43.858;25.974;2023-07-13T11:27:38;100810.56;;;38.96;27.67
42169;BME280;27838;43.858;25.974;2023-07-13T11:30:25;100807.84;;;38.96;27.00
42169;BME280;27838;43.858;25.974;2023-07-13T11:33:27;100807.91;;;38.88;26.65
42169;BME280;27838;43.858;25.974;2023-07-13T11:36:00;100786.97;;;38.88;26.84
42169;BME280;27838;43.858;25.974;2023-07-13T11:38:33;100781.81;;;38.94;27.16
42169;BME280;27838;43.858;25.974;2023-07-13T11:41:23;100794.41;;;38.95;26.45
42169;BME280;27838;43.858;25.974;2023-07-13T11:44:05;100790.34;;;38.90;26.66
42169;BME280;27838;43.858;25.974;2023-07-13T11:46:32;100766.41;;;39.01;26.05
42169;BME280;27838;43.858;25.974;2023-07-13T11:48:59;100767.94;;;39.03;26.29
42169;BME280;27838;43.858;25.974;2023-07-13T11:51:29;100781.06;;;39.00;26.21
42169;BME280;27838;43.858;25.974;2023-07-13T11:54:00;100772.59;;;38.95;26.32
42169;BME280;27838;43.858;25.974;2023-07-13T11:56:27;100765.66;;;38.92;26.14
42169;BME280;27838;43.858;25.974;2023-07-13T11:58:56;100770.06;;;38.93;26.24
42169;BME280;27838;43.858;25.974;2023-07-13T12:01:26;100763.78;;;38.93;25.94
42169;BME280;27838;43.858;25.974;2023-07-13T12:03:54;100762.81;;;38.85;26.40
42169;BME280;27838;43.858;25.974;2023-07-13T12:06:29;100759.03;;;38.86;26.21
42169;BME280;27838;43.858;25.974;2023-07-13T12:09:00;100746.78;;;38.90;26.40
42169;BME280;27838;43.858;25.974;2023-07-13T12:11:29;100751.47;;;38.97;26.65
42169;BME280;27838;43.858;25.974;2023-07-13T12:13:58;100752.94;;;39.07;25.89
42169;BME280;27838;43.858;25.974;2023-07-13T12:16:30;100755.72;;;39.14;26.48
42169;BME280;27838;43.858;25.974;2023-07-13T12:19:00;100756.50;;;39.23;26.69
42169;BME280;27838;43.858;25.974;2023-07-13T12:21:33;100746.28;;;39.25;26.45
42169;BME280;27838;43.858;25.974;2023-07-13T12:24:00;100759.97;;;39.32;26.42
42169;BME280;27838;43.858;25.974;2023-07-13T12:26:30;100754.78;;;39.37;26.05
42169;BME280;27838;43.858;25.974;2023-07-13T12:29:00;100759.41;;;39.36;25.42
42169;BME280;27838;43.858;25.974;2023-07-13T12:31:41;100748.69;;;39.35;25.26
42169;BME280;27838;43.858;25.974;2023-07-13T12:34:22;100745.69;;;39.30;25.82
42169;BME280;27838;43.858;25.974;2023-07-13T12:41:52;100748.03;;;39.33;25.71
42169;BME280;27838;43.858;25.974;2023-07-13T12:44:27;100750.41;;;39.36;25.55
42169;BME280;27838;43.858;25.974;2023-07-13T12:46:59;100744.94;;;39.36;24.85
42169;BME280;27838;43.858;25.974;2023-07-13T12:49:32;100738.44;;;39.37;24.83
42169;BME280;27838;43.858;25.974;2023-07-13T12:52:01;100748.22;;;39.31;23.92
42169;BME280;27838;43.858;25.974;2023-07-13T12:54:29;100744.19;;;39.27;24.12
42169;BME280;27838;43.858;25.974;2023-07-13T12:56:58;100742.31;;;39.27;23.51
42169;BME280;27838;43.858;25.974;2023-07-13T12:59:31;100738.75;;;39.27;22.67
42169;BME280;27838;43.858;25.974;2023-07-13T13:02:02;100744.38;;;39.25;23.08
42169;BME280;27838;43.858;25.974;2023-07-13T13:04:29;100734.22;;;39.19;23.09
42169;BME280;27838;43.858;25.974;2023-07-13T13:07:03;100733.38;;;39.19;22.39
42169;BME280;27838;43.858;25.974;2023-07-13T13:09:31;100730.91;;;39.09;22.55
42169;BME280;27838;43.858;25.974;2023-07-13T13:11:58;100738.44;;;39.07;22.59
42169;BME280;27838;43.858;25.974;2023-07-13T13:14:25;100728.78;;;39.04;22.23
42169;BME280;27838;43.858;25.974;2023-07-13T13:16:52;100728.28;;;39.01;22.85
42169;BME280;27838;43.858;25.974;2023-07-13T13:19:23;100733.06;;;38.99;23.04
42169;BME280;27838;43.858;25.974;2023-07-13T13:21:51;100731.91;;;38.93;23.65
42169;BME280;27838;43.858;25.974;2023-07-13T13:24:20;100727.03;;;38.88;23.35
42169;BME280;27838;43.858;25.974;2023-07-13T13:26:48;100728.44;;;38.84;23.79
42169;BME280;27838;43.858;25.974;2023-07-13T13:29:18;100725.22;;;38.81;24.07
42169;BME280;27838;43.858;25.974;2023-07-13T13:31:49;100721.00;;;38.78;23.93